createdAt,value
2019-05-13T00:01:34.955Z,13.00
2019-05-13T00:04:07.690Z,12.88
2019-05-13T00:06:50.237Z,12.96
2019-05-13T00:09:08.121Z,12.89
2019-05-13T00:11:37.195Z,12.89
2019-05-13T00:14:06.293Z,12.86
2019-05-13T00:16:35.353Z,13.02
2019-05-13T00:19:04.784Z,12.87
2019-05-13T00:21:34.151Z,12.82
2019-05-13T00:24:06.405Z,12.83
2019-05-13T00:26:35.928Z,12.74
2019-05-13T00:29:05.170Z,12.60
2019-05-13T00:31:36.033Z,12.38
2019-05-13T00:34:07.999Z,12.47
2019-05-13T00:36:37.398Z,12.51
2019-05-13T00:39:08.030Z,12.72
2019-05-13T00:41:37.101Z,12.60
2019-05-13T00:44:09.362Z,12.72
2019-05-13T00:46:38.439Z,12.54
2019-05-13T00:49:07.473Z,12.44
2019-05-13T00:51:36.848Z,12.56
2019-05-13T00:54:05.911Z,12.65
2019-05-13T00:56:34.978Z,12.26
2019-05-13T00:59:04.494Z,12.26
2019-05-13T01:01:33.651Z,12.41
2019-05-13T01:04:06.523Z,12.36
2019-05-13T01:06:35.649Z,12.38
2019-05-13T01:09:06.954Z,12.37
2019-05-13T01:11:36.383Z,12.33
2019-05-13T01:14:05.740Z,12.47
2019-05-13T01:16:35.182Z,12.49
2019-05-13T01:19:04.344Z,12.58
2019-05-13T01:21:34.699Z,12.49
2019-05-13T01:24:05.484Z,12.50
2019-05-13T01:26:34.537Z,12.34
2019-05-13T01:29:04.263Z,12.37
2019-05-13T01:31:34.387Z,12.36
2019-05-13T01:34:04.525Z,12.13
2019-05-13T01:36:34.248Z,11.91
2019-05-13T01:39:05.700Z,12.02
2019-05-13T01:41:34.772Z,12.10
2019-05-13T01:44:06.870Z,11.74
2019-05-13T01:46:36.418Z,11.69
2019-05-13T01:49:05.471Z,11.68
2019-05-13T01:51:34.833Z,11.80
2019-05-13T01:54:06.736Z,11.54
2019-05-13T01:56:35.792Z,11.68
2019-05-13T01:59:04.931Z,11.54
2019-05-13T02:01:34.075Z,11.78
2019-05-13T02:04:04.375Z,11.67
2019-05-13T02:06:33.923Z,11.74
2019-05-13T02:09:04.602Z,11.48
2019-05-13T02:11:34.195Z,11.56
2019-05-13T02:14:06.389Z,11.49
2019-05-13T02:16:35.539Z,11.57
2019-05-13T02:19:04.703Z,11.38
2019-05-13T02:21:33.826Z,11.49
2019-05-13T02:24:04.515Z,11.38
2019-05-13T02:26:34.485Z,11.28
2019-05-13T02:29:04.005Z,11.43
2019-05-13T02:31:45.443Z,11.04
2019-05-13T02:34:06.986Z,10.96
2019-05-13T02:36:36.048Z,10.97
2019-05-13T02:39:06.986Z,11.12
2019-05-13T02:41:36.375Z,11.20
2019-05-13T02:44:05.767Z,11.24
2019-05-13T02:46:34.841Z,11.03
2019-05-13T02:49:03.929Z,11.15
2019-05-13T02:51:33.146Z,11.28
2019-05-13T02:54:03.704Z,11.38
2019-05-13T02:56:33.383Z,11.34
2019-05-13T02:59:03.962Z,11.44
2019-05-13T03:01:33.529Z,11.25
2019-05-13T03:04:03.534Z,11.20
2019-05-13T03:06:33.615Z,11.28
2019-05-13T03:09:03.670Z,11.02
2019-05-13T03:11:33.316Z,11.02
2019-05-13T03:14:03.994Z,10.77
2019-05-13T03:16:45.163Z,10.89
2019-05-13T03:19:14.329Z,10.84
2019-05-13T03:21:43.463Z,10.83
2019-05-13T03:24:13.468Z,10.65
2019-05-13T03:26:42.939Z,10.82
2019-05-13T03:29:13.190Z,10.77
2019-05-13T03:31:46.510Z,10.59
2019-05-13T03:34:15.811Z,10.42
2019-05-13T03:36:46.247Z,10.28
2019-05-13T03:39:16.567Z,10.46
2019-05-13T03:41:46.815Z,10.53
2019-05-13T03:44:17.363Z,10.47
2019-05-13T03:46:47.797Z,10.39
2019-05-13T03:49:18.359Z,10.43
2019-05-13T03:51:47.794Z,10.42
2019-05-13T03:54:16.918Z,10.55
2019-05-13T03:56:46.020Z,10.50
2019-05-13T03:59:15.113Z,10.49
2019-05-13T04:01:44.193Z,10.34
2019-05-13T04:04:13.287Z,10.54
2019-05-13T04:06:43.024Z,10.58
2019-05-13T04:09:22.492Z,10.29
2019-05-13T04:11:43.873Z,10.33
2019-05-13T04:14:12.961Z,10.50
2019-05-13T04:16:42.987Z,10.68
2019-05-13T04:19:12.481Z,10.66
2019-05-13T04:21:42.918Z,10.70
2019-05-13T04:24:12.441Z,10.49
2019-05-13T04:26:43.270Z,10.49
2019-05-13T04:29:13.698Z,10.41
2019-05-13T04:31:42.735Z,10.11
2019-05-13T04:34:12.514Z,10.19
2019-05-13T04:36:43.059Z,10.22
2019-05-13T04:39:13.023Z,10.30
2019-05-13T04:41:42.472Z,10.24
2019-05-13T04:44:13.060Z,10.31
2019-05-13T04:46:43.389Z,10.35
2019-05-13T04:49:12.998Z,10.33
2019-05-13T04:51:42.463Z,10.40
2019-05-13T04:54:12.994Z,10.51
2019-05-13T04:56:42.502Z,10.27
2019-05-13T04:59:12.520Z,10.55
2019-05-13T05:02:22.060Z,10.58
2019-05-13T05:04:56.487Z,10.53
2019-05-13T05:08:03.095Z,10.61
2019-05-13T05:11:02.417Z,10.64
2019-05-13T05:13:57.411Z,10.65
2019-05-13T05:17:03.232Z,10.34
2019-05-13T05:20:32.303Z,10.71
2019-05-13T05:23:37.028Z,10.84
2019-05-13T05:26:32.024Z,10.75
2019-05-13T05:29:32.197Z,10.58
2019-05-13T05:32:12.401Z,10.81
2019-05-13T05:35:07.824Z,10.53
2019-05-13T05:38:04.143Z,10.66
2019-05-13T05:40:34.927Z,10.92
2019-05-13T05:43:05.137Z,11.12
2019-05-13T05:45:36.854Z,11.11
2019-05-13T05:48:07.081Z,11.35
2019-05-13T05:50:37.143Z,11.42
2019-05-13T05:53:06.516Z,11.52
2019-05-13T05:55:36.500Z,11.66
2019-05-13T05:58:07.558Z,11.72
2019-05-13T06:00:41.331Z,11.61
2019-05-13T06:03:13.561Z,11.81
2019-05-13T06:05:41.930Z,11.88
2019-05-13T06:08:11.470Z,11.95
2019-05-13T06:10:47.265Z,12.00
2019-05-13T06:13:12.185Z,12.02
2019-05-13T06:15:42.137Z,12.14
2019-05-13T06:18:11.729Z,12.33
2019-05-13T06:20:41.832Z,12.31
2019-05-13T06:23:11.556Z,12.50
2019-05-13T06:25:42.787Z,12.67
2019-05-13T06:28:12.503Z,12.54
2019-05-13T06:30:41.960Z,12.53
2019-05-13T06:33:12.246Z,12.53
2019-05-13T06:35:44.529Z,12.47
2019-05-13T06:38:12.110Z,12.50
2019-05-13T06:40:42.435Z,12.52
2019-05-13T06:43:12.082Z,12.72
2019-05-13T06:45:42.062Z,12.56
2019-05-13T06:48:11.799Z,12.74
2019-05-13T06:50:41.723Z,12.65
2019-05-13T06:53:12.743Z,12.76
2019-05-13T06:55:42.912Z,12.76
2019-05-13T06:58:12.064Z,12.97
2019-05-13T07:00:42.720Z,13.06
2019-05-13T07:03:12.916Z,13.08
2019-05-13T07:05:42.481Z,13.03
2019-05-13T07:08:12.202Z,13.11
2019-05-13T07:10:41.732Z,12.98
2019-05-13T07:13:11.500Z,12.99
2019-05-13T07:15:41.635Z,13.13
2019-05-13T07:18:11.758Z,13.15
2019-05-13T07:20:42.730Z,13.34
2019-05-13T07:23:12.484Z,13.42
2019-05-13T07:25:42.124Z,13.17
2019-05-13T07:28:12.669Z,13.31
2019-05-13T07:30:43.092Z,13.45
2019-05-13T07:33:12.982Z,13.54
2019-05-13T07:35:45.005Z,13.53
2019-05-13T07:38:13.433Z,13.64
2019-05-13T07:40:42.974Z,13.66
2019-05-13T07:43:12.557Z,13.73
2019-05-13T07:45:42.463Z,13.73
2019-05-13T07:48:21.122Z,13.85
2019-05-13T07:50:53.621Z,13.82
2019-05-13T07:53:18.692Z,13.88
2019-05-13T07:55:44.776Z,13.77
2019-05-13T07:58:13.866Z,13.66
2019-05-13T08:00:43.168Z,13.85
2019-05-13T08:03:12.659Z,13.83
2019-05-13T08:05:42.027Z,13.96
2019-05-13T08:08:11.856Z,14.04
2019-05-13T08:10:41.791Z,14.09
2019-05-13T08:13:11.851Z,14.14
2019-05-13T08:15:42.206Z,13.95
2019-05-13T08:18:12.283Z,14.05
2019-05-13T08:20:42.215Z,14.17
2019-05-13T08:23:11.951Z,14.27
2019-05-13T08:25:42.393Z,14.24
2019-05-13T08:28:12.775Z,14.31
2019-05-13T08:30:42.851Z,14.34
2019-05-13T08:33:12.714Z,14.50
2019-05-13T08:35:47.046Z,14.39
2019-05-13T08:38:13.372Z,14.47
2019-05-13T08:40:42.714Z,14.38
2019-05-13T08:43:12.484Z,14.45
2019-05-13T08:45:42.294Z,14.48
2019-05-13T08:48:12.803Z,14.60
2019-05-13T08:50:43.054Z,14.52
2019-05-13T08:53:12.682Z,14.48
2019-05-13T08:55:42.789Z,14.50
2019-05-13T08:58:13.476Z,14.60
2019-05-13T09:00:52.794Z,14.58
2019-05-13T09:03:22.810Z,14.68
2019-05-13T09:05:52.319Z,14.77
2019-05-13T09:08:22.663Z,14.75
2019-05-13T09:10:56.096Z,14.82
2019-05-13T09:13:23.294Z,14.82
2019-05-13T09:15:52.449Z,14.92
2019-05-13T09:18:22.777Z,15.03
2019-05-13T09:20:52.345Z,15.07
2019-05-13T09:23:22.324Z,15.23
2019-05-13T09:25:52.325Z,15.38
2019-05-13T09:28:22.057Z,15.46
2019-05-13T09:30:53.002Z,15.54
2019-05-13T09:33:22.423Z,15.65
2019-05-13T09:35:53.643Z,15.69
2019-05-13T09:38:22.443Z,15.71
2019-05-13T09:40:52.894Z,15.66
2019-05-13T09:43:22.522Z,15.71
2019-05-13T09:45:52.507Z,15.89
2019-05-13T09:48:22.808Z,15.94
2019-05-13T09:50:52.170Z,15.98
2019-05-13T09:53:22.175Z,15.97
2019-05-13T09:55:53.802Z,16.02
2019-05-13T09:58:23.038Z,16.15
2019-05-13T10:00:53.161Z,16.31
2019-05-13T10:03:28.888Z,16.29
2019-05-13T10:05:53.461Z,16.42
2019-05-13T10:08:22.611Z,16.54
2019-05-13T10:10:53.142Z,16.64
2019-05-13T10:13:23.314Z,16.67
2019-05-13T10:15:52.561Z,16.72
2019-05-13T10:18:22.410Z,16.75
2019-05-13T10:23:25.170Z,16.83
2019-05-13T10:25:57.310Z,16.96
2019-05-13T10:28:26.837Z,17.09
2019-05-13T10:30:55.960Z,17.22
2019-05-13T10:33:25.989Z,17.22
2019-05-13T10:35:55.370Z,17.27
2019-05-13T10:38:27.746Z,17.08
2019-05-13T10:40:55.405Z,17.18
2019-05-13T10:43:31.458Z,17.21
2019-05-13T10:45:55.371Z,17.35
2019-05-13T10:48:25.907Z,17.54
2019-05-13T10:50:54.984Z,17.74
2019-05-13T10:53:24.901Z,17.74
2019-05-13T10:55:54.136Z,17.91
2019-05-13T10:58:23.661Z,18.03
2019-05-13T11:00:54.746Z,18.15
2019-05-13T11:03:23.806Z,18.29
2019-05-13T11:05:53.127Z,18.30
2019-05-13T11:08:22.651Z,18.34
2019-05-13T11:10:53.045Z,18.49
2019-05-13T11:13:23.522Z,18.64
2019-05-13T11:18:24.583Z,18.72
2019-05-13T11:20:53.738Z,18.73
2019-05-13T11:23:23.585Z,18.82
2019-05-13T11:25:52.825Z,19.02
2019-05-13T11:28:21.944Z,19.13
2019-05-13T11:30:52.151Z,19.24
2019-05-13T11:33:22.289Z,19.52
2019-05-13T11:35:52.281Z,19.73
2019-05-13T11:38:22.357Z,19.81
2019-05-13T11:40:52.494Z,20.13
2019-05-13T11:43:27.238Z,20.04
2019-05-13T11:45:53.188Z,20.27
2019-05-13T11:48:23.454Z,20.58
2019-05-13T11:50:54.116Z,20.75
2019-05-13T11:53:32.785Z,21.05
2019-05-13T11:55:56.614Z,21.09
2019-05-13T11:58:25.748Z,20.92
2019-05-13T12:00:57.908Z,21.21
2019-05-13T12:03:27.118Z,21.41
2019-05-13T12:05:56.581Z,21.65
2019-05-13T12:08:25.779Z,21.89
2019-05-13T12:10:55.008Z,21.99
2019-05-13T12:13:24.483Z,22.08
2019-05-13T12:15:54.615Z,22.37
2019-05-13T12:18:24.081Z,22.69
2019-05-13T12:20:54.261Z,22.90
2019-05-13T12:23:23.494Z,22.94
2019-05-13T12:25:53.214Z,22.55
2019-05-13T12:28:22.609Z,22.10
2019-05-13T12:30:53.124Z,22.33
2019-05-13T12:33:22.974Z,22.65
2019-05-13T12:35:53.246Z,23.12
2019-05-13T12:38:23.085Z,23.71
2019-05-13T12:40:53.121Z,23.97
2019-05-13T12:43:24.292Z,24.17
2019-05-13T12:45:53.672Z,24.12
2019-05-13T12:48:23.190Z,24.78
2019-05-13T12:50:53.932Z,25.31
2019-05-13T12:53:23.420Z,25.44
2019-05-13T12:55:56.675Z,25.58
2019-05-13T12:58:23.996Z,25.54
2019-05-13T13:00:53.788Z,26.29
2019-05-13T13:03:23.562Z,26.90
2019-05-13T13:05:53.445Z,26.93
2019-05-13T13:08:38.714Z,27.03
2019-05-13T13:10:54.194Z,27.02
2019-05-13T13:13:52.407Z,26.66
2019-05-13T13:15:54.375Z,26.79
2019-05-13T13:18:23.445Z,27.33
2019-05-13T13:21:00.295Z,27.95
2019-05-13T13:23:24.001Z,28.08
2019-05-13T13:25:56.999Z,29.15
2019-05-13T13:28:24.425Z,29.23
2019-05-13T13:30:53.657Z,29.18
2019-05-13T13:33:22.811Z,29.88
2019-05-13T13:35:58.838Z,30.50
2019-05-13T13:38:25.116Z,31.36
2019-05-13T13:40:54.125Z,31.66
2019-05-13T13:43:25.412Z,31.90
2019-05-13T13:46:25.346Z,32.33
2019-05-13T13:48:26.034Z,31.22
2019-05-13T13:50:57.043Z,32.55
2019-05-13T13:53:26.487Z,32.11
2019-05-13T13:55:56.362Z,32.13
2019-05-13T13:58:43.444Z,32.88
2019-05-13T14:01:17.739Z,31.69
2019-05-13T14:03:46.096Z,30.71
2019-05-13T14:06:12.727Z,30.09
2019-05-13T14:06:25.608Z,16.65
2019-05-13T14:06:28.715Z,18.76
2019-05-13T14:08:41.879Z,31.85
2019-05-13T14:11:11.841Z,32.20
2019-05-13T14:13:43.862Z,32.05
2019-05-13T14:16:25.045Z,33.31
2019-05-13T14:18:43.775Z,33.48
2019-05-13T14:21:15.153Z,33.72
2019-05-13T14:23:48.569Z,32.93
2019-05-13T14:26:17.649Z,34.65
2019-05-13T14:28:46.809Z,33.67
2019-05-13T14:31:15.865Z,32.22
2019-05-13T14:33:44.982Z,31.39
2019-05-13T14:36:14.524Z,32.63
2019-05-13T14:38:43.657Z,33.66
2019-05-13T14:41:12.802Z,34.21
2019-05-13T14:43:42.199Z,33.50
2019-05-13T14:46:12.651Z,34.09
2019-05-13T14:48:43.421Z,33.91
2019-05-13T14:51:12.999Z,35.43
2019-05-13T14:53:42.204Z,35.14
2019-05-13T14:56:14.237Z,35.52
2019-05-13T14:58:42.577Z,35.89
2019-05-13T15:01:18.556Z,36.13
2019-05-13T15:03:42.507Z,35.93
2019-05-13T15:06:12.075Z,35.47
2019-05-13T15:08:42.155Z,35.25
2019-05-13T15:11:12.550Z,33.76
2019-05-13T15:13:42.506Z,35.41
2019-05-13T15:16:11.803Z,34.90
2019-05-13T15:18:41.734Z,35.63
2019-05-13T15:21:12.160Z,35.42
2019-05-13T15:23:42.343Z,35.98
2019-05-13T15:26:11.893Z,36.84
2019-05-13T15:28:42.113Z,36.12
2019-05-13T15:31:11.634Z,35.45
2019-05-13T15:33:41.782Z,34.09
2019-05-13T15:36:12.014Z,32.52
2019-05-13T15:38:41.539Z,33.92
2019-05-13T15:41:15.287Z,34.59
2019-05-13T15:43:42.125Z,32.53
2019-05-13T15:46:12.581Z,34.09
2019-05-13T15:48:42.350Z,34.20
2019-05-13T15:51:11.460Z,34.54
2019-05-13T15:53:40.511Z,31.14
2019-05-13T15:56:12.352Z,31.04
2019-05-13T15:58:44.200Z,29.61
2019-05-13T16:01:12.471Z,30.25
2019-05-13T16:03:42.085Z,29.81
2019-05-13T16:06:11.157Z,29.19
2019-05-13T16:08:43.290Z,27.66
2019-05-13T16:11:12.668Z,27.10
2019-05-13T16:13:41.900Z,26.08
2019-05-13T16:16:12.187Z,25.99
2019-05-13T16:18:42.084Z,26.14
2019-05-13T16:21:12.073Z,25.44
2019-05-13T16:23:42.905Z,25.69
2019-05-13T16:26:13.400Z,25.99
2019-05-13T16:28:42.589Z,25.80
2019-05-13T16:31:11.955Z,26.19
2019-05-13T16:33:41.852Z,25.44
2019-05-13T16:36:12.650Z,25.15
2019-05-13T16:38:42.003Z,24.99
2019-05-13T16:41:12.381Z,24.78
2019-05-13T16:43:42.682Z,24.44
2019-05-13T16:46:12.352Z,24.13
2019-05-13T16:48:42.190Z,23.73
2019-05-13T16:51:12.760Z,24.18
2019-05-13T16:53:42.424Z,23.97
2019-05-13T16:56:25.644Z,24.00
2019-05-13T16:58:42.935Z,23.50
2019-05-13T17:01:12.083Z,23.33
2019-05-13T17:03:41.718Z,22.95
2019-05-13T17:06:12.673Z,23.10
2019-05-13T17:08:42.506Z,23.48
2019-05-13T17:11:12.147Z,23.32
2019-05-13T17:13:42.381Z,23.19
2019-05-13T17:16:11.780Z,22.91
2019-05-13T17:18:41.846Z,22.99
2019-05-13T17:21:11.036Z,22.90
2019-05-13T17:23:41.817Z,23.06
2019-05-13T17:26:11.735Z,22.93
2019-05-13T17:28:41.690Z,22.89
2019-05-13T17:31:11.790Z,23.14
2019-05-13T17:33:41.274Z,22.64
2019-05-13T17:36:12.348Z,22.72
2019-05-13T17:38:41.527Z,22.49
2019-05-13T17:41:12.222Z,22.87
2019-05-13T17:43:41.843Z,22.55
2019-05-13T17:46:11.287Z,22.45
2019-05-13T17:48:41.706Z,22.16
2019-05-13T17:51:13.093Z,22.64
2019-05-13T17:53:43.957Z,22.34
2019-05-13T17:56:14.934Z,21.93
2019-05-13T17:58:44.441Z,21.92
2019-05-13T18:01:13.987Z,21.60
2019-05-13T18:03:44.102Z,21.40
2019-05-13T18:06:13.664Z,21.02
2019-05-13T18:08:43.738Z,21.09
2019-05-13T18:11:16.667Z,20.62
2019-05-13T18:13:46.034Z,20.99
2019-05-13T18:16:16.907Z,21.14
2019-05-13T18:18:47.695Z,21.32
2019-05-13T18:21:17.417Z,21.16
2019-05-13T18:23:47.077Z,21.20
2019-05-13T18:26:16.657Z,21.23
2019-05-13T18:28:46.869Z,21.02
2019-05-13T18:31:16.766Z,21.16
2019-05-13T18:33:46.230Z,20.73
2019-05-13T18:36:15.978Z,20.60
2019-05-13T18:38:46.709Z,20.57
2019-05-13T18:44:20.236Z,20.61
2019-05-13T18:46:52.173Z,20.03
2019-05-13T18:49:31.797Z,20.02
2019-05-13T18:52:23.908Z,20.06
2019-05-13T18:54:55.586Z,19.78
2019-05-13T18:57:36.557Z,19.98
2019-05-13T19:00:12.867Z,19.38
2019-05-13T19:02:45.272Z,19.77
2019-05-13T19:05:16.295Z,19.35
2019-05-13T19:07:46.291Z,18.97
2019-05-13T19:10:21.986Z,19.09
2019-05-13T19:12:52.322Z,19.02
2019-05-13T19:15:22.734Z,18.81
2019-05-13T19:17:52.284Z,18.95
2019-05-13T19:20:25.761Z,19.21
2019-05-13T19:23:21.790Z,19.09
2019-05-13T19:26:24.286Z,19.24
2019-05-13T19:28:53.871Z,19.20
2019-05-13T19:31:54.079Z,18.98
2019-05-13T19:34:23.833Z,19.14
2019-05-13T19:36:53.961Z,18.57
2019-05-13T19:39:23.385Z,18.59
2019-05-13T19:41:53.245Z,18.59
2019-05-13T19:44:22.588Z,18.52
2019-05-13T19:46:54.691Z,18.32
2019-05-13T19:49:32.605Z,18.06
2019-05-13T19:51:57.921Z,18.13
2019-05-13T19:54:31.388Z,17.92
2019-05-13T19:57:02.128Z,17.79
2019-05-13T19:59:34.534Z,17.69
2019-05-13T20:03:06.489Z,17.76
2019-05-13T20:06:12.084Z,17.47
2019-05-13T20:08:48.301Z,17.58
2019-05-13T20:11:43.737Z,17.43
2019-05-13T20:14:52.024Z,17.42
2019-05-13T20:17:21.858Z,17.55
2019-05-13T20:19:53.630Z,17.48
2019-05-13T20:22:23.050Z,17.31
2019-05-13T20:24:56.564Z,17.24
2019-05-13T20:27:27.038Z,17.20
2019-05-13T20:29:56.444Z,17.22
2019-05-13T20:32:26.046Z,17.17
2019-05-13T20:34:59.065Z,17.27
2019-05-13T20:37:28.380Z,17.22
2019-05-13T20:40:02.085Z,17.32
2019-05-13T20:42:31.057Z,17.41
2019-05-13T20:45:02.478Z,17.35
2019-05-13T20:47:33.509Z,17.30
2019-05-13T20:50:12.442Z,17.55
2019-05-13T20:52:42.275Z,17.56
2019-05-13T20:55:12.584Z,17.61
2019-05-13T20:57:42.275Z,17.16
2019-05-13T21:00:23.080Z,17.14
2019-05-13T21:02:52.726Z,17.31
2019-05-13T21:05:32.003Z,17.24
2019-05-13T21:08:02.113Z,17.23
2019-05-13T21:10:31.853Z,17.15
2019-05-13T21:13:02.505Z,17.08
2019-05-13T21:15:51.899Z,17.19
2019-05-13T21:18:31.556Z,17.22
2019-05-13T21:21:05.636Z,17.33
2019-05-13T21:23:36.674Z,17.45
2019-05-13T21:26:16.372Z,17.51
2019-05-13T21:28:48.463Z,17.44
2019-05-13T21:31:31.578Z,17.44
2019-05-13T21:34:11.223Z,17.27
2019-05-13T21:36:41.308Z,17.18
2019-05-13T21:39:12.393Z,17.29
2019-05-13T21:41:42.376Z,17.18
2019-05-13T21:44:12.163Z,17.13
2019-05-13T21:46:42.413Z,17.18
2019-05-13T21:49:21.139Z,17.13
2019-05-13T21:51:53.330Z,17.09
2019-05-13T21:54:44.137Z,17.01
2019-05-13T21:57:16.144Z,17.14
2019-05-13T21:59:48.357Z,17.09
2019-05-13T22:02:21.164Z,17.07
2019-05-13T22:04:51.861Z,17.09
2019-05-13T22:07:23.247Z,17.03
2019-05-13T22:09:55.853Z,16.78
2019-05-13T22:12:25.538Z,16.74
2019-05-13T22:14:54.934Z,16.77
2019-05-13T22:17:24.128Z,16.53
2019-05-13T22:19:53.688Z,16.60
2019-05-13T22:22:25.798Z,16.36
2019-05-13T22:24:55.447Z,16.35
2019-05-13T22:27:25.877Z,16.33
2019-05-13T22:29:55.177Z,16.13
2019-05-13T22:32:24.708Z,16.13
2019-05-13T22:34:53.897Z,16.06
2019-05-13T22:37:23.276Z,15.90
2019-05-13T22:39:52.760Z,15.34
2019-05-13T22:42:22.082Z,15.59
2019-05-13T22:44:52.212Z,15.77
2019-05-13T22:47:23.107Z,15.73
2019-05-13T22:49:52.340Z,15.75
2019-05-13T22:52:21.928Z,15.74
2019-05-13T22:54:51.979Z,15.70
2019-05-13T22:57:22.051Z,15.29
2019-05-13T22:59:52.031Z,15.37
2019-05-13T23:02:22.607Z,15.42
2019-05-13T23:04:57.740Z,15.49
2019-05-13T23:07:26.916Z,15.49
2019-05-13T23:09:56.089Z,15.32
2019-05-13T23:12:25.276Z,15.39
2019-05-13T23:14:54.774Z,15.41
2019-05-13T23:17:24.000Z,15.32
2019-05-13T23:19:53.314Z,15.42
2019-05-13T23:22:22.597Z,15.44
2019-05-13T23:24:52.167Z,15.18
2019-05-13T23:27:22.083Z,15.47
2019-05-13T23:29:51.753Z,15.41
2019-05-13T23:32:21.405Z,15.15
2019-05-13T23:34:51.265Z,15.28
2019-05-13T23:37:21.804Z,15.30
2019-05-13T23:39:52.110Z,15.29
2019-05-13T23:42:21.359Z,15.23
2019-05-13T23:44:51.789Z,15.12
2019-05-13T23:47:21.840Z,15.15
2019-05-13T23:49:51.382Z,14.95
2019-05-13T23:52:22.092Z,14.82
2019-05-13T23:54:51.693Z,14.70
2019-05-13T23:57:22.169Z,14.67
2019-05-13T23:59:51.545Z,14.71
